createdAt,value
2023-03-22T00:01:37.085Z,100618.50
2023-03-22T00:04:05.235Z,100628.44
2023-03-22T00:06:35.383Z,100611.50
2023-03-22T00:09:04.890Z,100616.94
2023-03-22T00:11:33.098Z,100619.03
2023-03-22T00:14:01.731Z,100619.00
2023-03-22T00:16:30.976Z,100625.34
2023-03-22T00:19:05.233Z,100614.72
2023-03-22T00:21:37.268Z,100618.19
2023-03-22T00:24:08.607Z,100622.34
2023-03-22T00:26:37.040Z,100634.13
2023-03-22T00:29:06.056Z,100629.91
2023-03-22T00:31:40.171Z,100623.63
2023-03-22T00:34:09.695Z,100631.53
2023-03-22T00:36:38.371Z,100626.19
2023-03-22T00:39:06.966Z,100625.53
2023-03-22T00:41:35.295Z,100621.06
2023-03-22T00:44:06.057Z,100616.56
2023-03-22T00:46:35.712Z,100623.53
2023-03-22T00:49:03.866Z,100627.16
2023-03-22T00:51:32.515Z,100623.03
2023-03-22T00:54:00.686Z,100625.09
2023-03-22T00:56:34.192Z,100623.78
2023-03-22T00:59:03.678Z,100620.34
2023-03-22T01:01:33.232Z,100620.59
2023-03-22T01:04:03.608Z,100618.94
2023-03-22T01:06:33.597Z,100608.44
2023-03-22T01:09:03.976Z,100621.44
2023-03-22T01:11:36.200Z,100618.78
2023-03-22T01:14:05.901Z,100617.06
2023-03-22T01:16:34.342Z,100616.53
2023-03-22T01:19:02.873Z,100617.88
2023-03-22T01:21:31.927Z,100628.88
2023-03-22T01:24:00.076Z,100632.72
2023-03-22T01:26:28.585Z,100631.84
2023-03-22T01:28:56.912Z,100637.13
2023-03-22T01:31:25.208Z,100637.28
2023-03-22T01:33:54.205Z,100630.28
2023-03-22T01:36:22.220Z,100634.91
2023-03-22T01:38:52.209Z,100638.63
2023-03-22T01:41:21.738Z,100639.25
2023-03-22T01:44:19.068Z,100637.28
2023-03-22T01:46:49.371Z,100631.69
2023-03-22T01:49:26.464Z,100635.81
2023-03-22T01:51:57.883Z,100642.97
2023-03-22T01:54:41.083Z,100646.75
2023-03-22T01:57:09.080Z,100651.06
2023-03-22T01:59:37.809Z,100646.59
2023-03-22T02:02:06.209Z,100640.66
2023-03-22T02:04:37.062Z,100639.53
2023-03-22T02:07:10.307Z,100638.75
2023-03-22T02:09:42.915Z,100640.72
2023-03-22T02:12:32.756Z,100640.81
2023-03-22T02:15:30.000Z,100634.22
2023-03-22T02:18:28.315Z,100632.94
2023-03-22T02:21:21.078Z,100634.59
2023-03-22T02:23:56.494Z,100636.16
2023-03-22T02:26:31.853Z,100634.44
2023-03-22T02:29:09.466Z,100634.50
2023-03-22T02:31:49.864Z,100644.50
2023-03-22T02:34:28.078Z,100645.38
2023-03-22T02:37:02.361Z,100640.94
2023-03-22T02:39:49.226Z,100639.28
2023-03-22T02:42:47.334Z,100639.00
2023-03-22T02:45:21.095Z,100651.72
2023-03-22T02:48:03.199Z,100651.72
2023-03-22T02:50:35.130Z,100653.59
2023-03-22T02:53:32.708Z,100660.50
2023-03-22T02:56:22.033Z,100650.63
2023-03-22T02:58:53.907Z,100659.31
2023-03-22T03:01:32.807Z,100661.13
2023-03-22T03:04:05.165Z,100655.09
2023-03-22T03:06:39.309Z,100658.63
2023-03-22T03:09:08.201Z,100662.16
2023-03-22T03:11:38.112Z,100658.63
2023-03-22T03:14:06.574Z,100664.06
2023-03-22T03:16:37.693Z,100663.50
2023-03-22T03:19:20.710Z,100659.50
2023-03-22T03:22:01.988Z,100668.47
2023-03-22T03:24:36.542Z,100670.41
2023-03-22T03:27:07.525Z,100665.94
2023-03-22T03:30:06.248Z,100674.97
2023-03-22T03:32:38.856Z,100678.56
2023-03-22T03:35:22.949Z,100691.91
2023-03-22T03:37:57.981Z,100689.34
2023-03-22T03:40:31.414Z,100687.81
2023-03-22T03:43:03.572Z,100689.56
2023-03-22T03:45:32.378Z,100685.16
2023-03-22T03:48:03.564Z,100683.28
2023-03-22T03:50:31.930Z,100692.94
2023-03-22T03:53:00.476Z,100692.94
2023-03-22T03:55:29.636Z,100697.16
2023-03-22T03:57:57.854Z,100699.75
2023-03-22T04:00:26.380Z,100698.56
2023-03-22T04:02:54.462Z,100699.38
2023-03-22T04:05:23.377Z,100708.75
2023-03-22T04:07:53.586Z,100705.94
2023-03-22T04:10:24.403Z,100712.69
2023-03-22T04:12:56.417Z,100717.63
2023-03-22T04:15:25.163Z,100716.56
2023-03-22T04:17:56.063Z,100712.69
2023-03-22T04:20:32.459Z,100716.78
2023-03-22T04:23:00.715Z,100722.63
2023-03-22T04:25:30.658Z,100718.16
2023-03-22T04:28:00.887Z,100716.13
2023-03-22T04:30:28.755Z,100716.72
2023-03-22T04:32:59.334Z,100722.69
2023-03-22T04:35:27.475Z,100728.34
2023-03-22T04:37:57.939Z,100716.13
2023-03-22T04:40:26.877Z,100729.22
2023-03-22T04:42:59.303Z,100727.88
2023-03-22T04:45:47.388Z,100722.19
2023-03-22T04:48:15.548Z,100721.16
2023-03-22T04:50:44.572Z,100717.97
2023-03-22T04:53:13.277Z,100723.41
2023-03-22T04:55:41.484Z,100724.81
2023-03-22T04:58:13.456Z,100731.72
2023-03-22T05:00:42.702Z,100726.16
2023-03-22T05:03:11.692Z,100731.13
2023-03-22T05:05:43.589Z,100732.91
2023-03-22T05:08:14.699Z,100734.50
2023-03-22T05:10:43.697Z,100735.22
2023-03-22T05:13:12.260Z,100732.09
2023-03-22T05:15:42.141Z,100736.03
2023-03-22T05:18:10.644Z,100732.34
2023-03-22T05:20:42.698Z,100733.75
2023-03-22T05:23:12.319Z,100724.25
2023-03-22T05:25:41.147Z,100720.00
2023-03-22T05:28:10.930Z,100725.06
2023-03-22T05:30:39.508Z,100722.31
2023-03-22T05:33:08.442Z,100729.31
2023-03-22T05:35:38.401Z,100732.66
2023-03-22T05:38:08.546Z,100738.72
2023-03-22T05:40:37.226Z,100738.53
2023-03-22T05:43:05.744Z,100739.31
2023-03-22T05:45:37.057Z,100748.19
2023-03-22T05:48:05.867Z,100749.91
2023-03-22T05:50:34.940Z,100754.41
2023-03-22T05:53:06.727Z,100757.13
2023-03-22T05:55:38.470Z,100756.50
2023-03-22T05:58:19.613Z,100751.78
2023-03-22T06:00:50.319Z,100749.44
2023-03-22T06:03:28.543Z,100759.63
2023-03-22T06:05:58.799Z,100761.13
2023-03-22T06:08:27.661Z,100752.53
2023-03-22T06:10:56.037Z,100762.22
2023-03-22T06:13:24.678Z,100765.44
2023-03-22T06:15:55.414Z,100760.16
2023-03-22T06:18:25.111Z,100756.44
2023-03-22T06:20:53.346Z,100776.47
2023-03-22T06:23:21.604Z,100767.22
2023-03-22T06:25:52.199Z,100765.56
2023-03-22T06:28:45.932Z,100771.50
2023-03-22T06:31:13.936Z,100776.53
2023-03-22T06:33:45.963Z,100776.19
2023-03-22T06:36:14.144Z,100776.53
2023-03-22T06:38:43.990Z,100779.00
2023-03-22T06:41:15.318Z,100774.06
2023-03-22T06:43:43.557Z,100787.94
2023-03-22T06:46:11.935Z,100773.22
2023-03-22T06:48:40.974Z,100777.19
2023-03-22T06:51:09.430Z,100778.72
2023-03-22T06:53:37.911Z,100784.88
2023-03-22T06:56:06.562Z,100788.72
2023-03-22T06:58:35.030Z,100788.84
2023-03-22T07:01:05.367Z,100792.13
2023-03-22T07:03:38.808Z,100788.34
2023-03-22T07:06:09.108Z,100788.53
2023-03-22T07:08:38.402Z,100801.63
2023-03-22T07:11:11.302Z,100793.16
2023-03-22T07:13:39.486Z,100787.31
2023-03-22T07:16:08.629Z,100792.25
2023-03-22T07:18:38.616Z,100788.06
2023-03-22T07:21:07.236Z,100797.34
2023-03-22T07:23:36.022Z,100795.75
2023-03-22T07:26:04.813Z,100799.25
2023-03-22T07:28:34.032Z,100798.03
2023-03-22T07:31:08.186Z,100799.34
2023-03-22T07:33:36.552Z,100796.84
2023-03-22T07:36:06.795Z,100796.50
2023-03-22T07:38:38.229Z,100799.22
2023-03-22T07:41:06.934Z,100799.69
2023-03-22T07:43:50.799Z,100799.59
2023-03-22T07:46:25.178Z,100796.66
2023-03-22T07:48:53.629Z,100801.44
2023-03-22T07:51:21.912Z,100803.00
2023-03-22T07:53:50.007Z,100802.97
2023-03-22T07:56:19.980Z,100807.13
2023-03-22T07:58:48.459Z,100808.28
2023-03-22T08:01:16.771Z,100808.06
2023-03-22T08:03:44.603Z,100801.72
2023-03-22T08:06:13.663Z,100803.94
2023-03-22T08:08:41.833Z,100803.28
2023-03-22T08:11:10.137Z,100800.69
2023-03-22T08:13:38.222Z,100800.16
2023-03-22T08:16:07.462Z,100802.69
2023-03-22T08:18:37.074Z,100804.78
2023-03-22T08:21:05.664Z,100799.44
2023-03-22T08:23:42.012Z,100804.25
2023-03-22T08:26:11.663Z,100800.16
2023-03-22T08:28:40.038Z,100810.34
2023-03-22T08:31:16.236Z,100794.16
2023-03-22T08:33:45.383Z,100798.50
2023-03-22T08:36:20.347Z,100801.88
2023-03-22T08:38:50.847Z,100797.69
2023-03-22T08:41:20.528Z,100803.19
2023-03-22T08:43:49.349Z,100799.66
2023-03-22T08:46:18.020Z,100798.56
2023-03-22T08:48:51.322Z,100795.88
2023-03-22T08:51:23.578Z,100795.56
2023-03-22T08:53:52.249Z,100799.25
2023-03-22T08:56:20.542Z,100799.13
2023-03-22T08:58:49.676Z,100787.97
2023-03-22T09:01:18.441Z,100800.16
2023-03-22T09:03:46.368Z,100792.16
2023-03-22T09:06:15.060Z,100800.72
2023-03-22T09:08:46.619Z,100798.47
2023-03-22T09:11:17.632Z,100792.88
2023-03-22T09:13:51.925Z,100790.50
2023-03-22T09:16:21.443Z,100791.69
2023-03-22T09:18:54.202Z,100798.38
2023-03-22T09:21:23.988Z,100793.97
2023-03-22T09:23:52.261Z,100795.16
2023-03-22T09:26:23.169Z,100793.63
2023-03-22T09:28:52.048Z,100783.91
2023-03-22T09:31:20.886Z,100784.44
2023-03-22T09:33:52.234Z,100784.69
2023-03-22T09:36:21.036Z,100784.97
2023-03-22T09:38:50.298Z,100784.84
2023-03-22T09:41:25.293Z,100785.72
2023-03-22T09:43:58.803Z,100788.22
2023-03-22T09:46:37.226Z,100792.72
2023-03-22T09:49:12.682Z,100786.66
2023-03-22T09:51:51.795Z,100786.97
2023-03-22T09:54:36.064Z,100786.56
2023-03-22T09:57:30.176Z,100793.06
2023-03-22T10:00:14.990Z,100781.25
2023-03-22T10:02:46.614Z,100781.56
2023-03-22T10:05:32.774Z,100779.50
2023-03-22T10:08:18.942Z,100773.78
2023-03-22T10:10:47.721Z,100774.91
2023-03-22T10:13:45.847Z,100776.28
2023-03-22T10:16:26.788Z,100769.47
2023-03-22T10:19:02.622Z,100772.94
2023-03-22T10:21:38.186Z,100773.41
2023-03-22T10:24:33.825Z,100768.50
2023-03-22T10:27:02.552Z,100759.72
2023-03-22T10:29:40.055Z,100764.31
2023-03-22T10:32:19.078Z,100759.06
2023-03-22T10:34:47.839Z,100766.13
2023-03-22T10:37:20.109Z,100771.78
2023-03-22T10:39:55.224Z,100757.69
2023-03-22T10:42:26.791Z,100757.69
2023-03-22T10:45:07.659Z,100765.53
2023-03-22T10:47:58.459Z,100761.44
2023-03-22T10:50:31.444Z,100756.31
2023-03-22T10:53:07.405Z,100748.88
2023-03-22T10:55:42.455Z,100746.28
2023-03-22T10:58:22.120Z,100758.25
2023-03-22T11:00:57.584Z,100748.69
2023-03-22T11:03:51.229Z,100742.34
2023-03-22T11:06:33.131Z,100744.31
2023-03-22T11:09:13.327Z,100742.53
2023-03-22T11:11:55.060Z,100741.34
2023-03-22T11:14:36.248Z,100742.09
2023-03-22T11:17:09.053Z,100725.31
2023-03-22T11:19:50.835Z,100726.50
2023-03-22T11:22:31.856Z,100730.00
2023-03-22T11:25:00.211Z,100719.72
2023-03-22T11:27:33.712Z,100724.94
2023-03-22T11:30:22.336Z,100725.72
2023-03-22T11:33:20.445Z,100715.38
2023-03-22T11:35:59.342Z,100724.00
2023-03-22T11:38:42.247Z,100720.06
2023-03-22T11:41:23.628Z,100715.94
2023-03-22T11:43:55.027Z,100714.47
2023-03-22T11:46:26.212Z,100710.31
2023-03-22T11:49:00.993Z,100707.06
2023-03-22T11:51:41.724Z,100706.50
2023-03-22T11:54:34.805Z,100713.16
2023-03-22T11:57:06.157Z,100706.28
2023-03-22T12:00:11.979Z,100703.66
2023-03-22T12:02:49.272Z,100701.78
2023-03-22T12:05:27.651Z,100708.97
2023-03-22T12:08:01.475Z,100708.53
2023-03-22T12:10:43.493Z,100705.59
2023-03-22T12:13:47.640Z,100697.53
2023-03-22T12:16:25.924Z,100703.56
2023-03-22T12:19:43.532Z,100702.44
2023-03-22T12:22:14.480Z,100695.72
2023-03-22T12:24:43.078Z,100692.16
2023-03-22T12:27:45.235Z,100696.72
2023-03-22T12:30:25.751Z,100691.84
2023-03-22T12:33:21.053Z,100692.56
2023-03-22T12:35:56.640Z,100695.50
2023-03-22T12:38:46.719Z,100694.31
2023-03-22T12:41:19.851Z,100699.25
2023-03-22T12:44:11.669Z,100697.97
2023-03-22T12:46:54.711Z,100703.09
2023-03-22T12:49:29.330Z,100711.78
2023-03-22T12:52:12.252Z,100710.38
2023-03-22T12:54:41.188Z,100706.00
2023-03-22T12:57:09.695Z,100710.28
2023-03-22T12:59:41.899Z,100697.84
2023-03-22T13:02:15.120Z,100695.97
2023-03-22T13:04:46.074Z,100702.97
2023-03-22T13:07:17.270Z,100705.53
2023-03-22T13:09:49.539Z,100700.72
2023-03-22T13:12:25.030Z,100706.84
2023-03-22T13:14:58.807Z,100699.44
2023-03-22T13:17:27.833Z,100692.56
2023-03-22T13:20:15.165Z,100701.41
2023-03-22T13:22:46.566Z,100700.22
2023-03-22T13:25:21.484Z,100695.50
2023-03-22T13:28:03.348Z,100696.50
2023-03-22T13:30:35.145Z,100695.25
2023-03-22T13:33:09.183Z,100704.47
2023-03-22T13:35:54.566Z,100699.56
2023-03-22T13:38:27.009Z,100712.56
2023-03-22T13:41:28.188Z,100701.31
2023-03-22T13:44:01.277Z,100696.41
2023-03-22T13:46:44.701Z,100708.06
2023-03-22T13:49:41.925Z,100705.09
2023-03-22T13:52:20.078Z,100708.28
2023-03-22T13:54:50.564Z,100696.19
2023-03-22T13:57:59.230Z,100700.38
2023-03-22T14:00:50.844Z,100696.38
2023-03-22T14:03:31.108Z,100690.09
2023-03-22T14:06:16.137Z,100696.16
2023-03-22T14:08:48.151Z,100692.63
2023-03-22T14:11:57.186Z,100686.34
2023-03-22T14:14:47.469Z,100680.75
2023-03-22T14:17:31.063Z,100687.03
2023-03-22T14:20:01.477Z,100686.19
